Time;durP1;ratioP1;P1;durP2;ratioP2;P2;SDS_P1;SDS_P2;PMS_P1;PMS_P2;Temp;Humidity;BMP_temperature;BMP_pressure;BME280_temperature;BME280_humidity;BME280_pressure;Samples;Min_cycle;Max_cycle;Signal;HPM_P1;HPM_P2
2021/09/14 00:02:17;;;;;;;3.15;2.92;;;24.10;62.30;;;;;;5124033;28;20023;-36
2021/09/14 00:04:43;;;;;;;3.10;2.78;;;24.10;62.30;;;;;;5125618;28;20030;-36
2021/09/14 00:07:09;;;;;;;3.20;2.90;;;24.10;62.40;;;;;;5125419;28;20028;-36
2021/09/14 00:09:35;;;;;;;3.38;3.08;;;24.10;62.60;;;;;;5124916;28;20036;-36
2021/09/14 00:12:02;;;;;;;3.55;3.25;;;24.10;62.80;;;;;;5106712;28;20480;-36
2021/09/14 00:14:28;;;;;;;3.50;3.20;;;24.10;62.90;;;;;;5125359;28;20031;-36
2021/09/14 00:16:54;;;;;;;3.05;2.75;;;24.20;63.00;;;;;;5125246;28;20035;-36
2021/09/14 00:19:20;;;;;;;3.90;3.60;;;24.10;63.80;;;;;;5125089;28;20046;-36
2021/09/14 00:21:46;;;;;;;3.15;2.95;;;24.10;63.10;;;;;;5124848;28;20036;-36
2021/09/14 00:24:13;;;;;;;3.63;3.33;;;24.20;63.30;;;;;;5106720;28;20030;-36
2021/09/14 00:26:39;;;;;;;3.53;3.22;;;24.20;63.40;;;;;;5125074;28;20578;-36
2021/09/14 00:29:05;;;;;;;3.45;3.15;;;24.20;63.40;;;;;;5124986;28;20038;-36
2021/09/14 00:31:32;;;;;;;3.72;3.42;;;24.20;63.50;;;;;;5124598;28;20466;-36
2021/09/14 00:33:59;;;;;;;3.78;3.47;;;24.20;64.40;;;;;;5124766;28;20024;-36
2021/09/14 00:36:25;;;;;;;3.33;3.03;;;24.20;64.40;;;;;;5124739;28;20031;-36
2021/09/14 00:38:51;;;;;;;3.80;3.50;;;24.20;63.70;;;;;;5124645;28;20019;-36
2021/09/14 00:41:17;;;;;;;3.42;3.13;;;24.30;63.90;;;;;;5124580;28;20032;-36
2021/09/14 00:43:53;;;;;;;3.85;3.45;;;24.30;64.00;;;;;;5124703;28;20027;-36
2021/09/14 00:46:20;;;;;;;4.20;3.80;;;24.30;64.10;;;;;;5107898;28;20031;-36
2021/09/14 00:48:46;;;;;;;4.22;3.83;;;24.30;64.30;;;;;;5124453;28;20048;-36
2021/09/14 00:51:12;;;;;;;4.30;3.90;;;24.30;64.40;;;;;;5124097;28;20112;-36
2021/09/14 00:53:38;;;;;;;4.25;3.38;;;24.30;64.40;;;;;;5124248;28;20054;-36
2021/09/14 00:56:04;;;;;;;3.90;3.60;;;24.30;64.30;;;;;;5106095;28;20027;-36
2021/09/14 00:58:31;;;;;;;4.03;3.70;;;24.30;64.40;;;;;;5109879;28;20111;-36
2021/09/14 01:00:57;;;;;;;3.80;3.47;;;24.30;64.40;;;;;;5103630;28;20031;-37
2021/09/14 01:03:23;;;;;;;4.05;3.67;;;24.30;64.40;;;;;;5103958;28;20050;-36
2021/09/14 01:05:50;;;;;;;4.07;3.67;;;24.30;64.40;;;;;;5103790;28;20028;-36
2021/09/14 01:08:16;;;;;;;3.88;3.58;;;24.30;64.40;;;;;;5109543;28;20030;-36
2021/09/14 01:10:43;;;;;;;4.67;3.77;;;24.30;64.40;;;;;;5105772;28;20055;-37
2021/09/14 01:13:10;;;;;;;4.20;3.40;;;24.30;64.50;;;;;;5123499;28;20035;-36
2021/09/14 01:15:36;;;;;;;;;;;24.30;64.60;;;;;;5124532;28;20035;-36
2021/09/14 01:18:03;;;;;;;4.57;4.18;;;24.30;64.30;;;;;;5124051;28;20682;-36
2021/09/14 01:20:30;;;;;;;4.38;4.00;;;24.30;64.60;;;;;;5123903;28;20061;-36
2021/09/14 01:22:56;;;;;;;4.80;4.38;;;24.30;64.70;;;;;;5123815;28;20019;-37
2021/09/14 01:25:23;;;;;;;4.63;4.22;;;24.40;64.70;;;;;;5123708;28;20043;-36
2021/09/14 01:27:50;;;;;;;5.18;4.30;;;24.30;65.50;;;;;;5123922;28;20031;-36
2021/09/14 01:30:22;;;;;;;5.25;4.78;;;24.30;65.00;;;;;;5123773;28;20040;-36
2021/09/14 01:32:54;;;;;;;4.47;4.07;;;24.30;65.00;;;;;;5123487;28;20031;-36
2021/09/14 01:35:22;;;;;;;4.55;4.15;;;24.30;65.00;;;;;;5089291;28;20027;-36
2021/09/14 01:37:48;;;;;;;4.68;4.28;;;24.30;65.00;;;;;;5082282;28;20028;-36
2021/09/14 01:40:15;;;;;;;4.40;4.00;;;24.40;65.00;;;;;;5123577;28;20076;-36
2021/09/14 01:42:41;;;;;;;4.38;3.97;;;24.40;65.00;;;;;;5123386;28;20555;-36
2021/09/14 01:45:08;;;;;;;4.20;3.83;;;24.40;65.00;;;;;;5123684;28;20063;-36
2021/09/14 01:47:35;;;;;;;3.97;3.67;;;24.40;65.00;;;;;;5123200;28;20291;-36
2021/09/14 01:50:02;;;;;;;4.28;3.88;;;24.40;65.00;;;;;;5123352;28;20140;-36
2021/09/14 01:52:32;;;;;;;4.50;4.10;;;24.40;65.00;;;;;;5122956;28;20070;-36
2021/09/14 01:55:02;;;;;;;;;;;24.40;65.00;;;;;;5121497;28;20028;-36
2021/09/14 01:57:33;;;;;;;3.85;3.55;;;24.40;65.00;;;;;;5123026;28;19910;-36
2021/09/14 02:00:01;;;;;;;4.78;4.38;;;24.40;65.10;;;;;;5123207;28;20107;-36
2021/09/14 02:02:47;;;;;;;4.50;4.10;;;24.40;65.10;;;;;;5123122;28;20024;-36
2021/09/14 02:56:38;;;;;;;4.95;4.45;;;24.30;65.70;;;;;;5102443;28;20462;-36
2021/09/14 02:59:04;;;;;;;6.28;5.68;;;24.30;65.70;;;;;;5100994;28;20032;-36
2021/09/14 03:01:30;;;;;;;6.93;5.75;;;24.30;65.90;;;;;;5102108;28;20027;-36
2021/09/14 03:03:57;;;;;;;7.43;6.28;;;24.30;65.80;;;;;;5101912;28;20810;-36
2021/09/14 03:06:24;;;;;;;5.82;5.22;;;24.30;65.90;;;;;;5105555;28;20049;-36
2021/09/14 03:08:51;;;;;;;5.65;5.15;;;24.30;65.80;;;;;;5103766;28;20039;-37
2021/09/14 03:11:18;;;;;;;5.30;4.80;;;24.30;66.60;;;;;;5122397;28;20044;-36
2021/09/14 03:13:44;;;;;;;5.38;4.88;;;24.30;65.80;;;;;;5122368;28;20055;-36
2021/09/14 03:16:11;;;;;;;5.57;5.07;;;24.30;65.70;;;;;;5122252;28;20053;-36
2021/09/14 03:18:37;;;;;;;;;;;24.30;65.80;;;;;;5123020;28;20031;-36
2021/09/14 03:21:04;;;;;;;5.28;4.78;;;24.30;65.80;;;;;;5122529;28;19903;-36
2021/09/14 03:23:33;;;;;;;5.55;5.05;;;24.30;65.80;;;;;;5122011;28;20031;-36
2021/09/14 03:25:59;;;;;;;5.38;4.88;;;24.30;65.80;;;;;;5122180;28;20032;-36
2021/09/14 03:28:26;;;;;;;5.72;5.22;;;24.30;65.80;;;;;;5122272;28;20058;-36
2021/09/14 03:30:52;;;;;;;5.90;5.30;;;24.30;65.80;;;;;;5122022;28;20118;-36
2021/09/14 03:33:18;;;;;;;6.20;5.70;;;24.30;65.70;;;;;;5122137;28;20028;-36
2021/09/14 03:35:44;;;;;;;6.05;5.50;;;24.20;65.70;;;;;;5122387;28;20074;-36
2021/09/14 03:38:11;;;;;;;5.82;5.32;;;24.20;65.70;;;;;;5125741;28;20051;-36
2021/09/14 03:40:39;;;;;;;5.65;5.15;;;24.20;65.60;;;;;;5125763;28;20055;-36
2021/09/14 03:43:06;;;;;;;5.97;5.43;;;24.20;65.60;;;;;;5125597;28;20050;-36
2021/09/14 03:45:32;;;;;;;5.85;5.30;;;24.20;65.60;;;;;;5125662;28;20038;-36
2021/09/14 03:48:00;;;;;;;5.73;5.13;;;24.20;65.70;;;;;;5125648;28;20456;-36
2021/09/14 03:50:26;;;;;;;5.70;5.20;;;24.20;65.80;;;;;;5125370;28;20601;-36
2021/09/14 03:52:52;;;;;;;5.78;5.28;;;24.20;65.70;;;;;;5125532;28;20028;-36
2021/09/14 03:55:18;;;;;;;6.22;5.63;;;24.20;65.70;;;;;;5125215;28;20074;-36
2021/09/14 03:57:44;;;;;;;6.82;6.13;;;24.20;65.70;;;;;;5125133;28;20024;-36
2021/09/14 04:00:11;;;;;;;7.13;5.80;;;24.10;66.30;;;;;;5125515;28;20111;-36
2021/09/14 04:05:31;;;;;;;6.65;6.05;;;24.20;65.70;;;;;;5125162;28;20091;-36
2021/09/14 04:10:40;;;;;;;6.13;5.53;;;24.10;65.70;;;;;;5125219;28;20039;-36
2021/09/14 04:13:06;;;;;;;6.35;5.40;;;24.10;65.60;;;;;;5106841;28;20054;-36
2021/09/14 04:15:34;;;;;;;6.00;5.47;;;24.10;65.50;;;;;;5124850;28;20077;-37
2021/09/14 04:18:00;;;;;;;5.93;5.43;;;24.10;65.30;;;;;;5125075;28;20031;-36
2021/09/14 04:20:26;;;;;;;6.22;5.68;;;24.10;65.30;;;;;;5125134;28;20028;-36
2021/09/14 04:22:52;;;;;;;5.55;5.05;;;24.10;65.30;;;;;;5125143;28;20042;-36
2021/09/14 04:25:18;;;;;;;6.35;5.75;;;24.10;65.20;;;;;;5124194;28;20043;-36
2021/09/14 04:27:44;;;;;;;6.30;5.70;;;24.10;65.30;;;;;;5125020;28;20091;-36
2021/09/14 04:30:11;;;;;;;5.53;5.03;;;24.10;65.30;;;;;;5124681;28;20539;-36
2021/09/14 04:32:37;;;;;;;6.27;5.50;;;24.10;65.30;;;;;;5124847;28;20034;-36
2021/09/14 04:35:04;;;;;;;6.33;5.73;;;24.00;65.20;;;;;;5124549;28;20031;-36
2021/09/14 04:37:30;;;;;;;6.20;5.63;;;24.10;65.30;;;;;;5124692;28;20035;-36
2021/09/14 04:39:56;;;;;;;6.05;5.55;;;24.10;65.30;;;;;;5124549;28;20031;-36
2021/09/14 04:42:22;;;;;;;6.22;5.63;;;24.00;65.30;;;;;;5124698;28;20046;-36
2021/09/14 04:44:48;;;;;;;6.80;6.20;;;24.00;65.30;;;;;;5124397;28;20081;-36
2021/09/14 04:47:14;;;;;;;6.30;5.70;;;24.00;65.30;;;;;;5124196;28;20059;-38
2021/09/14 04:49:40;;;;;;;6.43;5.82;;;24.00;65.30;;;;;;5123994;28;20031;-36
2021/09/14 04:52:07;;;;;;;5.57;5.07;;;24.00;65.30;;;;;;5124369;28;20107;-36
2021/09/14 04:54:37;;;;;;;6.28;5.63;;;24.00;65.30;;;;;;5124056;28;20028;-36
2021/09/14 04:57:03;;;;;;;6.03;5.53;;;24.00;65.30;;;;;;5124444;28;20118;-36
2021/09/14 04:59:30;;;;;;;5.93;5.35;;;24.00;65.40;;;;;;5106028;28;20023;-36
2021/09/14 05:01:57;;;;;;;7.00;6.30;;;24.00;65.30;;;;;;5124307;28;20035;-36
2021/09/14 05:04:24;;;;;;;6.28;5.75;;;24.00;65.30;;;;;;5123945;28;20043;-36
2021/09/14 05:06:50;;;;;;;6.27;5.67;;;23.90;65.30;;;;;;5123897;28;20031;-36
2021/09/14 05:09:16;;;;;;;6.60;6.00;;;24.00;65.40;;;;;;5123627;28;20020;-36
2021/09/14 05:11:44;;;;;;;5.85;5.35;;;23.90;65.40;;;;;;5124058;28;20058;-36
2021/09/14 05:14:11;;;;;;;6.65;6.05;;;23.90;65.40;;;;;;5123857;28;20042;-36
2021/09/14 05:16:37;;;;;;;6.57;5.97;;;23.90;65.30;;;;;;5124066;28;20051;-36
2021/09/14 05:19:03;;;;;;;6.20;5.63;;;23.90;65.30;;;;;;5124027;28;20099;-36
2021/09/14 05:21:31;;;;;;;6.22;5.72;;;23.90;65.40;;;;;;5123965;28;20035;-36
2021/09/14 05:23:58;;;;;;;6.28;5.68;;;23.90;65.40;;;;;;5123599;28;20039;-36
2021/09/14 05:26:26;;;;;;;6.38;5.78;;;23.80;65.40;;;;;;5123586;28;20020;-36
2021/09/14 05:28:52;;;;;;;6.30;5.70;;;23.90;65.40;;;;;;5123864;28;20027;-36
2021/09/14 05:31:18;;;;;;;6.50;5.90;;;23.90;65.50;;;;;;5123700;28;20063;-36
2021/09/14 05:33:46;;;;;;;6.85;6.15;;;23.90;65.50;;;;;;5123831;28;20035;-36
2021/09/14 05:36:12;;;;;;;6.10;5.50;;;23.90;65.50;;;;;;5123439;28;20058;-36
2021/09/14 05:38:39;;;;;;;6.20;5.63;;;23.90;65.60;;;;;;5105247;28;20012;-36
2021/09/14 05:41:05;;;;;;;6.00;5.40;;;23.80;65.60;;;;;;5105649;28;20073;-36
2021/09/14 05:43:32;;;;;;;6.53;5.93;;;23.80;65.60;;;;;;5123492;28;20111;-36
2021/09/14 05:45:58;;;;;;;6.07;5.57;;;23.80;65.60;;;;;;5123329;28;20116;-36
2021/09/14 05:48:24;;;;;;;6.45;5.85;;;23.80;65.60;;;;;;5123420;28;20050;-36
2021/09/14 05:50:50;;;;;;;5.90;5.40;;;23.80;65.60;;;;;;5123554;28;20036;-36
2021/09/14 05:53:16;;;;;;;6.72;6.13;;;23.80;65.70;;;;;;5123310;28;20023;-36
2021/09/14 05:55:42;;;;;;;6.63;6.03;;;23.80;65.70;;;;;;5122708;28;20097;-37
2021/09/14 05:58:09;;;;;;;6.43;5.82;;;23.80;65.70;;;;;;5105103;28;20047;-36
2021/09/14 06:00:35;;;;;;;7.00;6.35;;;23.70;65.60;;;;;;5122108;28;20038;-36
2021/09/14 06:03:01;;;;;;;5.97;5.47;;;23.70;65.60;;;;;;5123276;28;20052;-36
2021/09/14 06:05:27;;;;;;;6.68;6.03;;;23.70;65.70;;;;;;5123033;28;20041;-36
2021/09/14 06:07:54;;;;;;;6.57;5.97;;;23.70;65.70;;;;;;5114061;28;20058;-36
2021/09/14 06:10:20;;;;;;;6.22;5.63;;;23.70;65.70;;;;;;5102511;28;20067;-36
2021/09/14 06:12:46;;;;;;;6.00;5.50;;;23.70;65.70;;;;;;5102916;28;20051;-36
2021/09/14 06:15:12;;;;;;;6.63;6.03;;;23.70;65.70;;;;;;5102699;28;20039;-36
2021/09/14 06:17:42;;;;;;;6.82;6.22;;;23.70;65.70;;;;;;5102773;28;20777;-36
2021/09/14 06:20:09;;;;;;;6.63;6.03;;;23.70;65.80;;;;;;5102668;28;20032;-37
2021/09/14 06:22:35;;;;;;;6.03;5.45;;;23.70;65.80;;;;;;5102708;28;20024;-36
2021/09/14 06:25:01;;;;;;;6.27;5.70;;;23.70;65.80;;;;;;5116730;28;20054;-36
2021/09/14 06:27:27;;;;;;;6.95;6.25;;;23.70;65.80;;;;;;5122959;28;20027;-36
2021/09/14 06:29:53;;;;;;;6.97;6.28;;;23.70;65.80;;;;;;5123026;28;20035;-36
2021/09/14 06:32:20;;;;;;;6.55;5.95;;;23.60;65.80;;;;;;5122797;28;20056;-36
2021/09/14 06:34:46;;;;;;;6.88;6.28;;;23.60;65.80;;;;;;5122916;28;20027;-36
2021/09/14 06:37:12;;;;;;;6.97;6.32;;;23.60;65.90;;;;;;5122626;28;20024;-36
2021/09/14 06:39:38;;;;;;;6.57;5.90;;;23.60;65.90;;;;;;5122572;28;20019;-36
2021/09/14 06:42:04;;;;;;;7.05;6.35;;;23.60;65.90;;;;;;5123008;28;20051;-36
2021/09/14 06:44:32;;;;;;;6.82;6.13;;;23.60;66.00;;;;;;5122848;28;20030;-36
2021/09/14 06:46:58;;;;;;;7.25;6.55;;;23.60;66.00;;;;;;5122575;28;20020;-36
2021/09/14 06:49:26;;;;;;;6.60;5.88;;;23.60;66.00;;;;;;5122602;28;20055;-36
2021/09/14 06:51:52;;;;;;;7.55;6.85;;;23.60;66.00;;;;;;5122821;28;20043;-36
2021/09/14 06:54:19;;;;;;;6.63;6.03;;;23.60;66.00;;;;;;5122374;28;20047;-36
2021/09/14 06:56:45;;;;;;;7.05;6.35;;;23.60;66.80;;;;;;5122591;28;20023;-36
2021/09/14 06:59:11;;;;;;;7.03;6.32;;;23.60;66.10;;;;;;5122723;28;20087;-36
2021/09/14 07:01:37;;;;;;;6.75;6.15;;;23.60;66.10;;;;;;5122784;28;20085;-36
2021/09/14 07:04:03;;;;;;;7.13;6.43;;;23.60;66.10;;;;;;5122901;28;20039;-36
2021/09/14 07:06:29;;;;;;;7.57;6.87;;;23.50;66.00;;;;;;5122331;28;20024;-36
2021/09/14 07:08:56;;;;;;;6.97;6.38;;;23.50;66.10;;;;;;5086620;28;20036;-36
2021/09/14 07:11:22;;;;;;;7.30;6.57;;;23.50;66.10;;;;;;5103492;28;20035;-36
2021/09/14 07:13:48;;;;;;;7.05;6.35;;;23.50;66.10;;;;;;5106176;28;20020;-36
2021/09/14 07:16:14;;;;;;;7.03;6.38;;;23.50;66.10;;;;;;5120373;28;20027;-36
2021/09/14 07:18:41;;;;;;;6.97;6.38;;;23.50;66.10;;;;;;5126166;28;20800;-36
2021/09/14 07:21:07;;;;;;;7.25;6.55;;;23.50;66.10;;;;;;5126657;28;20534;-36
2021/09/14 07:23:34;;;;;;;7.23;6.13;;;23.50;66.20;;;;;;5126310;28;20039;-36
2021/09/14 07:26:00;;;;;;;7.35;6.65;;;23.50;66.20;;;;;;5125848;28;20031;-36
2021/09/14 07:28:27;;;;;;;7.00;6.30;;;23.50;66.20;;;;;;5126336;28;20062;-36
2021/09/14 07:30:53;;;;;;;7.03;6.32;;;23.50;66.20;;;;;;5126217;28;20047;-36
2021/09/14 07:33:19;;;;;;;7.13;6.43;;;23.50;66.30;;;;;;5126318;28;20024;-37
2021/09/14 07:35:46;;;;;;;6.18;5.68;;;23.50;66.30;;;;;;5126265;28;20036;-36
2021/09/14 07:38:12;;;;;;;6.93;6.22;;;23.40;66.20;;;;;;5114000;28;20024;-36
2021/09/14 07:40:39;;;;;;;7.10;6.50;;;23.40;66.20;;;;;;5105546;28;20032;-36
2021/09/14 07:43:05;;;;;;;7.13;6.47;;;23.40;66.30;;;;;;5105717;28;20035;-36
2021/09/14 07:45:31;;;;;;;7.70;6.90;;;23.40;66.30;;;;;;5105559;28;20272;-36
2021/09/14 07:47:57;;;;;;;7.43;6.73;;;23.40;66.30;;;;;;5105162;28;20064;-37
2021/09/14 07:50:24;;;;;;;6.63;6.03;;;23.40;66.40;;;;;;5087352;28;20127;-36
2021/09/14 07:52:50;;;;;;;6.88;5.65;;;23.40;66.40;;;;;;5105470;28;20115;-36
2021/09/14 07:55:16;;;;;;;6.78;6.18;;;23.40;66.40;;;;;;5122724;28;20027;-36
2021/09/14 07:57:43;;;;;;;6.73;6.13;;;23.30;66.30;;;;;;5125660;28;20028;-36
2021/09/14 08:00:09;;;;;;;7.18;6.47;;;23.40;66.40;;;;;;5126002;28;20039;-36
2021/09/14 08:02:36;;;;;;;6.65;6.00;;;23.30;66.30;;;;;;5125724;28;20049;-36
2021/09/14 08:05:02;;;;;;;7.07;6.40;;;23.30;66.30;;;;;;5107309;28;20032;-36
2021/09/14 08:07:28;;;;;;;7.15;6.45;;;23.30;66.40;;;;;;5124639;28;20042;-36
2021/09/14 08:09:54;;;;;;;6.78;6.18;;;23.30;66.50;;;;;;5124614;28;20035;-36
2021/09/14 08:12:20;;;;;;;7.60;6.90;;;23.30;66.40;;;;;;5125662;28;20123;-36
2021/09/14 08:14:47;;;;;;;7.03;6.43;;;23.30;66.50;;;;;;5125414;28;20024;-36
2021/09/14 08:17:15;;;;;;;6.38;5.80;;;23.30;66.50;;;;;;5125168;28;20034;-36
2021/09/14 08:19:42;;;;;;;6.40;5.80;;;23.30;66.50;;;;;;5125268;28;20058;-36
2021/09/14 08:22:11;;;;;;;7.32;6.63;;;23.30;66.50;;;;;;5125079;28;20027;-36
2021/09/14 08:24:38;;;;;;;7.32;6.50;;;23.30;66.50;;;;;;5124409;28;20027;-36
2021/09/14 08:27:04;;;;;;;7.17;6.47;;;23.30;66.60;;;;;;5104559;28;20024;-36
2021/09/14 08:29:31;;;;;;;6.72;6.05;;;23.30;66.60;;;;;;5104583;28;20652;-36
2021/09/14 08:31:57;;;;;;;6.55;5.95;;;23.30;66.60;;;;;;5086639;28;20036;-36
2021/09/14 08:34:23;;;;;;;7.47;6.78;;;23.20;66.50;;;;;;5104578;28;20039;-36
2021/09/14 08:36:50;;;;;;;6.83;6.23;;;23.20;66.50;;;;;;5104554;28;20056;-36
2021/09/14 08:39:16;;;;;;;6.88;6.28;;;23.20;66.50;;;;;;5104389;28;20024;-36
2021/09/14 08:41:44;;;;;;;6.82;6.05;;;23.20;66.60;;;;;;5104591;28;20031;-36
2021/09/14 08:44:10;;;;;;;6.38;5.82;;;23.20;66.60;;;;;;5104566;28;20046;-36
2021/09/14 08:46:36;;;;;;;7.15;6.55;;;23.20;66.70;;;;;;5104463;28;20088;-36
2021/09/14 08:49:03;;;;;;;7.30;6.70;;;23.20;66.70;;;;;;5104039;28;20058;-36
2021/09/14 08:51:29;;;;;;;6.93;6.30;;;23.20;66.70;;;;;;5104421;28;20040;-36
2021/09/14 08:53:55;;;;;;;7.00;6.33;;;23.20;66.70;;;;;;5110212;28;20015;-36
2021/09/14 08:56:21;;;;;;;7.20;6.50;;;23.20;66.80;;;;;;5124761;28;20031;-36
2021/09/14 08:59:03;;;;;;;6.55;5.95;;;23.20;66.70;;;;;;5124557;28;20025;-36
2021/09/14 09:01:29;;;;;;;6.95;6.35;;;23.20;66.80;;;;;;5124426;28;20108;-36
2021/09/14 09:03:57;;;;;;;6.30;5.72;;;23.10;66.70;;;;;;5124518;28;20039;-36
2021/09/14 09:06:34;;;;;;;6.93;6.22;;;23.10;66.80;;;;;;5106169;28;20027;-36
2021/09/14 09:09:14;;;;;;;6.63;6.03;;;23.10;66.80;;;;;;5124053;28;20081;-36
2021/09/14 09:11:56;;;;;;;6.78;6.18;;;23.10;66.80;;;;;;5124209;28;20046;-36
2021/09/14 09:14:59;;;;;;;7.13;6.43;;;23.10;66.90;;;;;;5124074;28;20020;-36
2021/09/14 09:17:26;;;;;;;6.93;6.30;;;23.10;66.90;;;;;;5040855;28;20089;-37
2021/09/14 09:19:55;;;;;;;6.95;6.35;;;23.10;66.90;;;;;;5041047;28;20049;-36
2021/09/14 09:22:23;;;;;;;6.68;6.05;;;23.10;66.90;;;;;;5040981;28;20036;-37
2021/09/14 09:24:50;;;;;;;6.85;6.25;;;23.10;66.90;;;;;;5040576;28;20033;-36
2021/09/14 09:27:17;;;;;;;6.50;5.90;;;23.10;66.90;;;;;;5040686;28;20664;-37
2021/09/14 09:29:43;;;;;;;7.65;6.95;;;23.10;66.90;;;;;;5040217;28;20040;-36
2021/09/14 09:32:10;;;;;;;7.30;6.60;;;23.10;67.00;;;;;;5040604;28;20037;-36
2021/09/14 09:34:36;;;;;;;6.57;5.97;;;23.10;67.00;;;;;;5040304;28;20033;-36
2021/09/14 09:37:04;;;;;;;7.60;6.88;;;23.10;67.00;;;;;;5040746;28;20069;-36
2021/09/14 09:39:51;;;;;;;6.88;6.28;;;23.00;67.00;;;;;;5039991;28;20034;-36
2021/09/14 09:42:17;;;;;;;6.65;6.00;;;23.00;67.00;;;;;;5040543;28;20089;-36
2021/09/14 09:44:53;;;;;;;6.85;6.22;;;23.00;67.10;;;;;;5040289;28;20049;-36
2021/09/14 09:47:20;;;;;;;6.35;5.75;;;23.00;67.10;;;;;;5040288;28;20021;-37
2021/09/14 09:49:47;;;;;;;7.18;6.47;;;23.00;67.10;;;;;;5040021;28;20045;-36
2021/09/14 09:52:14;;;;;;;6.70;6.10;;;23.00;67.10;;;;;;5110955;28;20040;-36
2021/09/14 09:54:40;;;;;;;6.80;6.20;;;23.00;67.10;;;;;;5110747;28;20032;-36
2021/09/14 09:57:09;;;;;;;6.63;6.00;;;23.00;67.20;;;;;;5085081;28;20043;-36
2021/09/14 09:59:36;;;;;;;7.88;6.40;;;23.00;67.20;;;;;;5103043;28;20778;-36
2021/09/14 10:02:24;;;;;;;7.10;6.40;;;23.00;67.20;;;;;;5110381;28;20031;-36
2021/09/14 10:05:03;;;;;;;7.07;6.38;;;23.00;67.20;;;;;;5123399;28;20083;-36
2021/09/14 10:07:30;;;;;;;7.22;6.53;;;23.00;67.30;;;;;;5089484;28;20024;-36
2021/09/14 10:09:58;;;;;;;6.85;6.25;;;23.00;67.30;;;;;;5105191;28;20095;-36
2021/09/14 10:12:34;;;;;;;7.10;6.43;;;23.00;67.30;;;;;;5123054;28;20019;-36
2021/09/14 10:15:05;;;;;;;7.15;6.45;;;23.00;67.30;;;;;;5123030;28;20480;-36
2021/09/14 10:17:32;;;;;;;7.30;6.60;;;22.90;67.30;;;;;;5123237;28;20057;-36
2021/09/14 10:20:11;;;;;;;6.93;6.32;;;22.90;67.30;;;;;;5123416;28;20020;-36
2021/09/14 10:22:38;;;;;;;7.00;6.32;;;22.90;67.30;;;;;;5123199;28;20046;-36
2021/09/14 10:25:06;;;;;;;6.55;5.95;;;22.90;67.30;;;;;;5122861;28;20484;-36
2021/09/14 10:27:41;;;;;;;7.00;6.30;;;22.90;67.30;;;;;;5122977;28;20036;-36
2021/09/14 10:30:09;;;;;;;6.82;6.13;;;22.90;67.40;;;;;;5123187;28;20043;-36
2021/09/14 10:32:43;;;;;;;7.15;6.43;;;22.90;67.40;;;;;;5123331;28;20020;-36
2021/09/14 10:35:10;;;;;;;7.25;6.43;;;22.90;67.40;;;;;;5123002;28;20028;-36
2021/09/14 10:37:37;;;;;;;7.30;6.53;;;22.90;67.40;;;;;;5116563;28;20060;-36
2021/09/14 10:40:14;;;;;;;7.05;6.35;;;22.90;67.50;;;;;;5102390;28;20040;-36
2021/09/14 10:42:42;;;;;;;7.70;7.00;;;22.90;67.50;;;;;;5102722;28;20024;-36
2021/09/14 10:45:13;;;;;;;7.30;6.60;;;22.90;67.50;;;;;;5102319;28;20257;-36
2021/09/14 10:47:41;;;;;;;6.90;6.20;;;22.90;67.50;;;;;;5105891;28;20070;-36
2021/09/14 10:50:08;;;;;;;7.32;6.63;;;22.80;67.50;;;;;;5106853;28;20031;-36
2021/09/14 10:52:44;;;;;;;7.20;6.50;;;22.80;67.50;;;;;;5106452;28;20028;-36
2021/09/14 10:55:14;;;;;;;7.05;6.45;;;22.80;67.50;;;;;;5122773;28;20022;-36
2021/09/14 10:58:00;;;;;;;6.82;6.18;;;22.80;67.60;;;;;;5126882;28;20028;-36
2021/09/14 11:00:35;;;;;;;7.03;6.32;;;22.80;67.60;;;;;;5127041;28;20034;-36
2021/09/14 11:03:06;;;;;;;7.05;6.35;;;22.80;67.60;;;;;;5127080;28;20028;-36
2021/09/14 11:05:33;;;;;;;6.85;6.25;;;22.80;67.60;;;;;;5126796;28;20034;-36
2021/09/14 11:08:02;;;;;;;6.65;5.95;;;22.80;67.60;;;;;;5126655;28;20028;-36
2021/09/14 11:10:35;;;;;;;6.47;5.88;;;22.80;67.60;;;;;;5126460;28;20115;-36
2021/09/14 11:13:02;;;;;;;6.93;6.32;;;22.80;67.60;;;;;;5108045;28;20106;-36
2021/09/14 11:15:28;;;;;;;7.43;6.72;;;22.80;67.70;;;;;;5126597;28;20015;-36
2021/09/14 11:17:54;;;;;;;7.88;7.07;;;22.80;67.70;;;;;;5126752;28;20514;-36
2021/09/14 11:20:21;;;;;;;7.65;6.95;;;22.80;67.70;;;;;;5126931;28;20024;-36
2021/09/14 11:22:50;;;;;;;7.22;6.63;;;22.80;67.70;;;;;;5126598;28;20095;-36
2021/09/14 11:25:21;;;;;;;7.72;7.03;;;22.80;67.70;;;;;;5125994;28;20105;-36
2021/09/14 11:28:09;;;;;;;7.75;6.60;;;22.70;67.70;;;;;;5126351;28;20023;-36
2021/09/14 11:30:36;;;;;;;7.43;6.72;;;22.70;67.80;;;;;;5126519;28;20035;-36
2021/09/14 11:33:03;;;;;;;6.93;6.28;;;22.70;67.80;;;;;;5126652;28;20023;-36
2021/09/14 11:35:30;;;;;;;6.47;5.88;;;22.70;67.80;;;;;;5126324;28;20098;-36
2021/09/14 11:38:00;;;;;;;7.05;6.40;;;22.70;67.80;;;;;;5098399;28;20054;-36
2021/09/14 11:40:26;;;;;;;6.93;6.32;;;22.70;67.80;;;;;;5105853;28;20088;-36
2021/09/14 11:42:59;;;;;;;7.43;6.75;;;22.70;68.60;;;;;;5105677;28;20036;-36
2021/09/14 11:45:27;;;;;;;7.18;6.47;;;22.70;67.90;;;;;;5105786;28;20087;-36
2021/09/14 11:47:53;;;;;;;7.75;6.95;;;22.70;67.90;;;;;;5105327;28;20102;-36
2021/09/14 11:50:26;;;;;;;6.97;6.38;;;22.70;67.90;;;;;;5087670;28;20063;-36
2021/09/14 11:53:06;;;;;;;7.07;6.38;;;22.70;67.90;;;;;;5105647;28;20039;-36
2021/09/14 11:55:33;;;;;;;7.65;6.95;;;22.70;68.00;;;;;;5124996;28;20046;-36
2021/09/14 11:58:00;;;;;;;7.47;6.78;;;22.70;68.00;;;;;;5125646;28;20035;-36
2021/09/14 12:01:02;;;;;;;7.30;6.60;;;22.70;68.00;;;;;;5125951;28;20038;-36
2021/09/14 12:03:39;;;;;;;7.38;6.68;;;22.70;68.00;;;;;;5022579;28;20958;-36
2021/09/14 12:06:06;;;;;;;6.63;5.95;;;22.70;68.80;;;;;;5022687;28;20157;-36
2021/09/14 12:08:34;;;;;;;7.10;6.40;;;22.70;68.00;;;;;;5022574;28;20152;-36
2021/09/14 12:11:01;;;;;;;7.80;7.10;;;22.60;68.00;;;;;;5022323;28;20611;-36
2021/09/14 12:13:27;;;;;;;6.82;6.13;;;22.60;68.00;;;;;;5022576;28;20084;-36
2021/09/14 12:16:05;;;;;;;7.70;6.88;;;22.60;68.00;;;;;;5022524;28;20211;-36
2021/09/14 12:18:31;;;;;;;7.32;6.63;;;22.60;68.00;;;;;;5021579;28;20026;-36
2021/09/14 12:20:57;;;;;;;7.35;6.65;;;22.60;68.10;;;;;;5022370;28;20034;-36
2021/09/14 12:23:23;;;;;;;6.97;6.38;;;22.60;68.10;;;;;;5022182;28;20054;-36
2021/09/14 12:25:52;;;;;;;6.95;6.25;;;22.60;68.10;;;;;;5022117;28;20033;-36
2021/09/14 12:28:18;;;;;;;6.97;6.38;;;22.60;68.00;;;;;;5022036;28;20026;-36
2021/09/14 12:30:44;;;;;;;7.03;6.38;;;22.60;68.10;;;;;;5022135;28;20133;-37
2021/09/14 12:33:11;;;;;;;7.18;6.57;;;22.60;68.10;;;;;;5021980;28;20022;-36
2021/09/14 12:35:39;;;;;;;7.85;6.93;;;22.60;68.10;;;;;;5022132;28;20030;-36
2021/09/14 12:38:07;;;;;;;7.10;6.45;;;22.60;68.20;;;;;;5086016;28;20047;-36
2021/09/14 12:40:33;;;;;;;7.53;6.82;;;22.60;68.10;;;;;;5104708;28;20039;-36
2021/09/14 12:42:59;;;;;;;7.13;6.43;;;22.60;68.10;;;;;;5104669;28;20027;-37
2021/09/14 12:45:25;;;;;;;6.40;5.80;;;22.60;68.10;;;;;;5104568;28;20051;-36
2021/09/14 12:47:51;;;;;;;6.68;6.07;;;22.60;68.10;;;;;;5104236;28;20048;-36
2021/09/14 12:50:17;;;;;;;7.13;6.45;;;22.60;68.10;;;;;;5124517;28;20039;-36
2021/09/14 12:52:43;;;;;;;7.65;6.95;;;22.60;68.10;;;;;;5106434;28;20031;-36
2021/09/14 12:55:10;;;;;;;7.72;5.82;;;22.60;68.10;;;;;;5124666;28;20024;-36
2021/09/14 12:57:37;;;;;;;7.05;6.25;;;22.60;68.20;;;;;;5124841;28;20375;-36
2021/09/14 13:00:04;;;;;;;7.90;7.20;;;22.60;68.20;;;;;;5124812;28;20031;-36
2021/09/14 13:02:30;;;;;;;;;;;22.60;68.20;;;;;;5125172;28;20758;-36
2021/09/14 13:04:56;;;;;;;6.97;6.28;;;22.60;68.20;;;;;;5124434;28;19938;-36
2021/09/14 13:07:22;;;;;;;7.15;6.55;;;22.60;68.20;;;;;;5124274;28;20031;-36
2021/09/14 13:09:48;;;;;;;7.20;6.50;;;22.60;68.20;;;;;;5123991;28;20024;-36
2021/09/14 13:12:20;;;;;;;7.20;6.50;;;22.60;68.20;;;;;;5124197;28;20028;-36
2021/09/14 13:17:33;;;;;;;6.55;5.95;;;22.60;68.20;;;;;;5124316;28;20062;-36
2021/09/14 13:19:59;;;;;;;6.70;6.10;;;22.60;68.20;;;;;;5124367;28;20035;-36
2021/09/14 13:22:25;;;;;;;6.45;5.85;;;22.60;68.20;;;;;;5123826;28;20019;-37
2021/09/14 13:24:51;;;;;;;6.85;6.15;;;22.60;68.20;;;;;;5124103;28;20031;-36
2021/09/14 13:27:17;;;;;;;6.32;5.72;;;22.60;68.10;;;;;;5124065;28;20020;-36
2021/09/14 13:29:44;;;;;;;7.60;6.90;;;22.60;68.10;;;;;;5123806;28;20024;-37
2021/09/14 13:32:10;;;;;;;6.50;5.90;;;22.60;68.10;;;;;;5124327;28;20074;-36
2021/09/14 13:34:36;;;;;;;6.45;5.85;;;22.60;68.00;;;;;;5124182;28;20053;-37
2021/09/14 13:37:02;;;;;;;7.18;6.47;;;22.60;68.00;;;;;;5124274;28;20026;-36
2021/09/14 13:39:28;;;;;;;6.60;6.00;;;22.60;68.10;;;;;;5123716;28;20027;-36
2021/09/14 13:41:57;;;;;;;6.90;6.30;;;22.60;68.00;;;;;;5123776;28;20034;-36
2021/09/14 13:46:55;;;;;;;7.20;6.10;;;22.70;68.10;;;;;;5123966;28;20505;-36
2021/09/14 13:49:22;;;;;;;6.47;5.88;;;22.70;68.10;;;;;;5123482;28;20051;-36
2021/09/14 13:51:49;;;;;;;6.90;6.30;;;22.70;68.10;;;;;;5123759;28;20142;-36
2021/09/14 13:54:16;;;;;;;6.90;6.30;;;22.70;68.20;;;;;;5114818;28;20016;-36